Time;durP1;ratioP1;P1;durP2;ratioP2;P2;SDS_P1;SDS_P2;PMS_P1;PMS_P2;Temp;Humidity;BMP_temperature;BMP_pressure;BME280_temperature;BME280_humidity;BME280_pressure;Samples;Min_cycle;Max_cycle;Signal;HPM_P1;HPM_P2
2021/12/15 00:01:59;;;;;;;33.80;16.23;;;;;;;;;;4988418;28;20201;-73
2021/12/15 00:04:24;;;;;;;32.53;16.10;;;;;;;;;;4989652;28;20022;-73
2021/12/15 00:06:49;;;;;;;37.40;17.45;;;;;;;;;;4987750;28;20297;-73
2021/12/15 00:09:15;;;;;;;36.35;17.20;;;;;;;;;;4988901;28;20053;-74
2021/12/15 00:11:41;;;;;;;37.80;17.10;;;;;;;;;;4987013;28;20031;-74
2021/12/15 00:14:08;;;;;;;33.70;16.58;;;;;;;;;;4987542;28;20030;-73
2021/12/15 00:16:33;;;;;;;33.08;15.93;;;;;;;;;;4987662;28;20157;-73
2021/12/15 00:18:59;;;;;;;36.25;16.98;;;;;;;;;;4988367;28;20128;-74
2021/12/15 00:21:24;;;;;;;37.38;18.15;;;;;;;;;;4989784;28;20022;-75
2021/12/15 00:23:49;;;;;;;35.88;17.15;;;;;;;;;;4985668;28;20177;-75
2021/12/15 00:26:15;;;;;;;36.17;16.60;;;;;;;;;;4988705;28;20029;-74
2021/12/15 00:28:42;;;;;;;33.03;16.58;;;;;;;;;;4987484;28;20475;-74
2021/12/15 00:31:07;;;;;;;35.20;16.88;;;;;;;;;;4987251;28;20034;-73
2021/12/15 00:33:34;;;;;;;30.45;15.40;;;;;;;;;;4984748;28;20395;-75
2021/12/15 00:35:59;;;;;;;32.13;15.50;;;;;;;;;;4991404;28;20101;-74
2021/12/15 00:38:25;;;;;;;32.40;15.18;;;;;;;;;;4987444;28;20121;-73
2021/12/15 00:40:50;;;;;;;32.42;15.20;;;;;;;;;;4987598;28;20037;-74
2021/12/15 00:43:16;;;;;;;32.97;15.25;;;;;;;;;;4988432;28;20113;-73
2021/12/15 00:45:41;;;;;;;29.90;15.35;;;;;;;;;;4987847;28;20037;-72
2021/12/15 00:48:06;;;;;;;33.67;14.93;;;;;;;;;;4988104;28;20909;-74
2021/12/15 00:50:33;;;;;;;33.50;16.83;;;;;;;;;;4990751;28;20046;-73
2021/12/15 00:52:59;;;;;;;32.17;15.73;;;;;;;;;;4991933;28;20025;-74
2021/12/15 00:55:25;;;;;;;30.55;15.52;;;;;;;;;;4987980;28;20580;-74
2021/12/15 00:57:50;;;;;;;31.20;15.68;;;;;;;;;;4987129;28;20029;-73
2021/12/15 01:00:18;;;;;;;31.17;15.40;;;;;;;;;;4988211;28;20402;-74
2021/12/15 01:02:44;;;;;;;29.30;14.60;;;;;;;;;;4989399;28;20019;-73
2021/12/15 01:05:11;;;;;;;31.45;15.40;;;;;;;;;;4987476;28;20031;-73
2021/12/15 01:07:37;;;;;;;32.05;15.32;;;;;;;;;;4986661;28;20055;-73
2021/12/15 01:10:03;;;;;;;32.97;15.68;;;;;;;;;;4987731;28;20045;-73
2021/12/15 01:20:19;;;;;;;29.65;14.40;;;;;;;;;;4993378;28;20460;-72
2021/12/15 01:22:49;;;;;;;33.42;15.60;;;;;;;;;;4996856;28;20026;-72
2021/12/15 01:25:14;;;;;;;33.47;15.63;;;;;;;;;;4991574;28;20026;-72
2021/12/15 01:27:39;;;;;;;29.92;14.75;;;;;;;;;;4991930;28;20029;-73
2021/12/15 01:30:06;;;;;;;29.33;14.95;;;;;;;;;;4988592;28;20085;-71
2021/12/15 01:32:31;;;;;;;28.77;13.63;;;;;;;;;;4988140;28;20026;-72
2021/12/15 01:34:56;;;;;;;31.25;14.98;;;;;;;;;;4991388;28;20379;-73
2021/12/15 01:37:22;;;;;;;24.27;13.38;;;;;;;;;;4991911;28;20018;-73
2021/12/15 01:39:53;;;;;;;28.48;14.65;;;;;;;;;;4991348;28;20062;-73
2021/12/15 01:42:18;;;;;;;25.95;13.70;;;;;;;;;;4987509;28;20026;-75
2021/12/15 01:47:27;;;;;;;27.45;14.23;;;;;;;;;;4992227;28;20398;-72
2021/12/15 01:49:53;;;;;;;25.48;12.82;;;;;;;;;;4991826;28;20038;-73
2021/12/15 01:52:20;;;;;;;29.58;14.18;;;;;;;;;;4988845;28;20037;-72
2021/12/15 01:55:06;;;;;;;29.48;14.75;;;;;;;;;;4991226;28;20086;-73
2021/12/15 01:57:31;;;;;;;29.00;14.60;;;;;;;;;;4990535;28;20042;-73
2021/12/15 01:59:57;;;;;;;26.67;14.20;;;;;;;;;;4989489;28;20178;-74
2021/12/15 02:02:23;;;;;;;29.00;14.60;;;;;;;;;;4991526;28;20052;-73
2021/12/15 02:04:49;;;;;;;23.98;12.50;;;;;;;;;;4990341;28;20113;-73
2021/12/15 02:07:16;;;;;;;25.55;12.80;;;;;;;;;;4990678;28;20132;-74
2021/12/15 02:12:26;;;;;;;26.70;13.50;;;;;;;;;;4991474;28;20057;-72
2021/12/15 02:14:52;;;;;;;27.73;14.45;;;;;;;;;;4990388;28;20406;-73
2021/12/15 02:17:17;;;;;;;26.38;13.52;;;;;;;;;;4990471;28;20030;-72
2021/12/15 02:19:43;;;;;;;24.60;13.70;;;;;;;;;;4991533;28;20451;-73
2021/12/15 02:22:08;;;;;;;26.13;13.25;;;;;;;;;;4989605;28;20026;-73
2021/12/15 02:24:35;;;;;;;27.08;13.75;;;;;;;;;;4990270;28;20327;-74
2021/12/15 02:27:02;;;;;;;26.40;14.07;;;;;;;;;;4990455;28;20026;-73
2021/12/15 02:29:32;;;;;;;26.67;13.93;;;;;;;;;;4990733;28;20030;-73
2021/12/15 02:32:08;;;;;;;26.20;13.00;;;;;;;;;;4990327;28;20044;-74
2021/12/15 02:34:56;;;;;;;28.45;13.57;;;;;;;;;;4985627;28;20031;-73
2021/12/15 02:37:20;;;;;;;26.90;13.30;;;;;;;;;;4989744;28;20512;-75
2021/12/15 02:40:04;;;;;;;26.23;13.32;;;;;;;;;;4990581;28;20482;-72
2021/12/15 02:42:32;;;;;;;29.33;14.18;;;;;;;;;;4988459;28;20026;-73
2021/12/15 02:44:57;;;;;;;29.40;14.15;;;;;;;;;;4990034;28;20034;-72
2021/12/15 02:47:24;;;;;;;31.35;15.48;;;;;;;;;;4991083;28;20445;-72
2021/12/15 02:49:50;;;;;;;29.70;14.65;;;;;;;;;;4989726;28;20137;-72
2021/12/15 02:52:16;;;;;;;28.88;14.63;;;;;;;;;;4995669;28;20018;-72
2021/12/15 02:54:41;;;;;;;26.77;14.45;;;;;;;;;;4991042;28;20520;-73
2021/12/15 02:57:10;;;;;;;30.58;14.45;;;;;;;;;;4984525;28;20382;-72
2021/12/15 02:59:46;;;;;;;25.15;13.52;;;;;;;;;;4986871;28;20033;-73
2021/12/15 03:02:35;;;;;;;27.25;14.00;;;;;;;;;;4990791;28;20061;-72
2021/12/15 03:05:09;;;;;;;30.17;14.27;;;;;;;;;;4989292;28;20053;-72
2021/12/15 03:15:34;;;;;;;27.15;13.80;;;;;;;;;;4989535;28;20064;-71
2021/12/15 03:18:08;;;;;;;28.23;12.60;;;;;;;;;;4984108;28;20025;-72
2021/12/15 03:20:35;;;;;;;30.65;14.30;;;;;;;;;;4992306;28;20468;-72
2021/12/15 03:23:01;;;;;;;28.00;14.02;;;;;;;;;;4988419;28;20049;-72
2021/12/15 03:25:29;;;;;;;29.08;14.82;;;;;;;;;;4989437;28;20026;-71
2021/12/15 03:33:38;;;;;;;28.73;14.38;;;;;;;;;;4989747;28;20048;-72
2021/12/15 03:36:10;;;;;;;28.77;14.45;;;;;;;;;;4989176;28;20027;-72
2021/12/15 03:38:36;;;;;;;27.00;13.95;;;;;;;;;;4987697;28;20038;-72
2021/12/15 03:41:03;;;;;;;27.38;13.43;;;;;;;;;;4990731;28;20092;-73
2021/12/15 03:43:30;;;;;;;27.75;13.73;;;;;;;;;;4988058;28;20073;-73
2021/12/15 03:45:58;;;;;;;28.88;15.00;;;;;;;;;;4988963;28;20069;-73
2021/12/15 03:48:25;;;;;;;27.07;13.87;;;;;;;;;;4994879;28;20556;-73
2021/12/15 03:50:51;;;;;;;28.23;14.38;;;;;;;;;;4994057;28;20301;-73
2021/12/15 03:53:18;;;;;;;27.08;13.57;;;;;;;;;;4989161;28;20521;-72
2021/12/15 03:55:44;;;;;;;28.88;14.48;;;;;;;;;;4989454;28;20023;-73
2021/12/15 03:58:11;;;;;;;30.50;15.10;;;;;;;;;;4987706;28;20034;-73
2021/12/15 04:00:39;;;;;;;30.60;14.85;;;;;;;;;;4989046;28;20026;-73
2021/12/15 04:03:05;;;;;;;27.83;14.25;;;;;;;;;;4989307;28;20073;-72
2021/12/15 04:05:30;;;;;;;29.92;14.90;;;;;;;;;;4987778;28;20022;-73
2021/12/15 04:07:57;;;;;;;29.95;14.88;;;;;;;;;;4986951;28;20502;-73
2021/12/15 04:10:23;;;;;;;32.55;16.55;;;;;;;;;;4989122;28;20084;-72
2021/12/15 04:12:49;;;;;;;34.90;16.63;;;;;;;;;;4989321;28;20026;-73
2021/12/15 04:15:25;;;;;;;31.50;15.93;;;;;;;;;;4988090;28;20126;-72
2021/12/15 04:17:55;;;;;;;33.83;16.40;;;;;;;;;;4988379;28;20030;-72
2021/12/15 04:20:20;;;;;;;;;;;;;;;;;;4991209;28;20034;-72
2021/12/15 04:22:46;;;;;;;35.25;16.52;;;;;;;;;;4987384;28;19992;-73
2021/12/15 04:25:14;;;;;;;34.53;17.15;;;;;;;;;;4988142;28;20281;-73
2021/12/15 04:27:40;;;;;;;33.40;16.77;;;;;;;;;;4986254;28;20026;-72
2021/12/15 04:30:07;;;;;;;33.90;16.75;;;;;;;;;;4988458;28;20034;-72
2021/12/15 04:32:36;;;;;;;38.03;18.15;;;;;;;;;;4988619;28;20042;-72
2021/12/15 04:35:01;;;;;;;;;;;;;;;;;;4978512;28;20041;-72
2021/12/15 04:37:27;;;;;;;38.53;16.98;;;;;;;;;;4987946;28;19913;-73
2021/12/15 04:39:52;;;;;;;37.85;18.27;;;;;;;;;;4988431;28;20281;-73
2021/12/15 04:42:19;;;;;;;38.90;18.13;;;;;;;;;;4988773;28;20164;-72
2021/12/15 04:44:45;;;;;;;42.25;18.33;;;;;;;;;;4986574;28;20398;-72
2021/12/15 04:47:11;;;;;;;40.85;17.83;;;;;;;;;;4988030;28;20018;-73
2021/12/15 04:49:39;;;;;;;40.42;18.58;;;;;;;;;;4987043;28;20041;-72
2021/12/15 04:52:05;;;;;;;41.58;18.50;;;;;;;;;;4991026;28;20057;-73
2021/12/15 04:54:30;;;;;;;45.28;19.90;;;;;;;;;;4987729;28;20062;-72
2021/12/15 04:56:56;;;;;;;40.03;19.05;;;;;;;;;;4987085;28;20038;-72
2021/12/15 04:59:21;;;;;;;45.67;19.70;;;;;;;;;;4987669;28;20076;-72
2021/12/15 05:01:46;;;;;;;45.15;19.13;;;;;;;;;;4987209;28;20066;-72
2021/12/15 05:04:13;;;;;;;45.67;19.38;;;;;;;;;;4988374;28;20469;-71
2021/12/15 05:06:39;;;;;;;44.35;19.52;;;;;;;;;;4988759;28;20058;-72
2021/12/15 05:09:05;;;;;;;48.08;19.63;;;;;;;;;;4988424;28;20031;-72
2021/12/15 05:11:30;;;;;;;42.78;19.10;;;;;;;;;;4983532;28;20475;-72
2021/12/15 05:13:55;;;;;;;47.42;20.98;;;;;;;;;;4988195;28;20023;-72
2021/12/15 05:16:20;;;;;;;46.03;19.85;;;;;;;;;;4986788;28;20157;-71
2021/12/15 05:18:46;;;;;;;44.10;19.73;;;;;;;;;;4988398;28;20092;-72
2021/12/15 05:21:11;;;;;;;44.33;19.13;;;;;;;;;;4988202;28;20030;-72
2021/12/15 05:23:37;;;;;;;53.13;21.45;;;;;;;;;;4985505;28;20479;-71
2021/12/15 05:26:03;;;;;;;48.20;21.88;;;;;;;;;;4982253;28;20116;-72
2021/12/15 05:28:28;;;;;;;46.25;20.65;;;;;;;;;;4989925;28;20019;-72
2021/12/15 05:30:56;;;;;;;52.83;21.55;;;;;;;;;;4987979;28;20050;-72
2021/12/15 05:33:21;;;;;;;48.08;20.25;;;;;;;;;;4988033;28;20493;-72
2021/12/15 05:35:46;;;;;;;43.17;19.52;;;;;;;;;;4986614;28;20104;-73
2021/12/15 05:38:12;;;;;;;48.75;20.33;;;;;;;;;;4988284;28;20390;-72
2021/12/15 05:40:37;;;;;;;52.13;21.50;;;;;;;;;;4985972;28;20033;-72
2021/12/15 05:43:03;;;;;;;49.20;21.10;;;;;;;;;;4986906;28;20041;-72
2021/12/15 05:45:30;;;;;;;45.70;21.00;;;;;;;;;;4984602;28;20133;-73
2021/12/15 05:47:56;;;;;;;43.95;19.48;;;;;;;;;;4987515;28;20093;-72
2021/12/15 05:50:22;;;;;;;54.15;21.42;;;;;;;;;;4989690;28;20512;-73
2021/12/15 05:52:48;;;;;;;52.53;20.50;;;;;;;;;;4992085;28;20026;-73
2021/12/15 05:55:14;;;;;;;54.35;21.45;;;;;;;;;;4987821;28;20553;-72
2021/12/15 05:57:39;;;;;;;51.03;20.10;;;;;;;;;;4988397;28;20138;-73
2021/12/15 06:00:07;;;;;;;46.17;19.27;;;;;;;;;;4987566;28;20346;-74
2021/12/15 06:02:32;;;;;;;50.22;20.80;;;;;;;;;;4991229;28;20493;-72
2021/12/15 06:04:57;;;;;;;54.28;21.38;;;;;;;;;;4990516;28;20026;-71
2021/12/15 06:07:23;;;;;;;51.70;20.88;;;;;;;;;;4991506;28;20108;-70
2021/12/15 06:09:48;;;;;;;55.90;21.05;;;;;;;;;;4990713;28;20037;-71
2021/12/15 06:12:13;;;;;;;48.55;20.85;;;;;;;;;;4990431;28;20029;-71
2021/12/15 06:14:39;;;;;;;53.97;20.92;;;;;;;;;;4990598;28;20026;-72
2021/12/15 06:17:06;;;;;;;53.53;20.50;;;;;;;;;;4989194;28;20030;-72
2021/12/15 06:19:32;;;;;;;51.85;22.13;;;;;;;;;;4989585;28;20022;-72
2021/12/15 06:21:57;;;;;;;51.38;20.40;;;;;;;;;;4993142;28;20028;-71
2021/12/15 06:24:24;;;;;;;64.28;26.70;;;;;;;;;;4990065;28;20034;-71
2021/12/15 06:26:50;;;;;;;52.85;22.83;;;;;;;;;;4989859;28;20457;-72
2021/12/15 06:29:15;;;;;;;56.35;25.77;;;;;;;;;;4989362;28;20129;-72
2021/12/15 06:31:41;;;;;;;64.43;29.05;;;;;;;;;;4989050;28;20030;-73
2021/12/15 06:34:06;;;;;;;64.90;31.73;;;;;;;;;;4990707;28;20462;-72
2021/12/15 06:36:33;;;;;;;70.88;34.05;;;;;;;;;;4987206;28;20394;-73
2021/12/15 06:38:59;;;;;;;72.05;33.95;;;;;;;;;;4988279;28;20386;-71
2021/12/15 06:41:24;;;;;;;65.50;32.58;;;;;;;;;;4990377;28;20026;-71
2021/12/15 06:43:55;;;;;;;68.47;33.50;;;;;;;;;;4989158;28;20026;-72
2021/12/15 06:46:59;;;;;;;70.05;33.35;;;;;;;;;;4991115;28;20037;-72
2021/12/15 07:00:18;;;;;;;73.32;32.28;;;;;;;;;;4989464;28;20021;-73
2021/12/15 07:02:43;;;;;;;67.75;29.98;;;;;;;;;;4990355;28;20074;-72
2021/12/15 07:05:09;;;;;;;71.82;31.42;;;;;;;;;;4989052;28;20058;-73
2021/12/15 07:07:35;;;;;;;71.03;29.38;;;;;;;;;;4988615;28;20410;-72
2021/12/15 07:10:00;;;;;;;69.65;29.35;;;;;;;;;;4985095;28;20045;-72
2021/12/15 07:12:26;;;;;;;70.63;29.77;;;;;;;;;;4989217;28;20418;-72
2021/12/15 07:14:51;;;;;;;62.72;27.50;;;;;;;;;;4990239;28;20690;-72
2021/12/15 07:17:21;;;;;;;64.22;28.67;;;;;;;;;;4989972;28;20497;-71
2021/12/15 07:25:05;;;;;;;69.53;30.80;;;;;;;;;;4986674;28;20053;-72
2021/12/15 07:27:30;;;;;;;66.30;29.17;;;;;;;;;;4985287;28;20474;-73
2021/12/15 07:29:56;;;;;;;67.28;29.40;;;;;;;;;;4989316;28;20038;-71
2021/12/15 07:32:21;;;;;;;63.50;28.85;;;;;;;;;;4989658;28;20092;-72
2021/12/15 07:34:46;;;;;;;66.18;30.00;;;;;;;;;;4989151;28;20038;-73
2021/12/15 07:37:12;;;;;;;72.30;31.95;;;;;;;;;;4989572;28;20038;-72
2021/12/15 07:39:37;;;;;;;66.72;29.48;;;;;;;;;;4990342;28;20034;-71
2021/12/15 07:42:10;;;;;;;64.78;27.67;;;;;;;;;;4983631;28;20074;-71
2021/12/15 07:44:36;;;;;;;63.75;28.33;;;;;;;;;;4989648;28;20440;-72
2021/12/15 07:47:01;;;;;;;59.00;27.17;;;;;;;;;;4989424;28;20092;-73
2021/12/15 07:49:27;;;;;;;61.83;27.83;;;;;;;;;;4988877;28;20042;-73
2021/12/15 07:52:00;;;;;;;59.78;26.83;;;;;;;;;;4992496;28;20034;-73
2021/12/15 07:54:26;;;;;;;61.75;27.23;;;;;;;;;;4989024;28;20466;-72
2021/12/15 07:56:51;;;;;;;63.58;27.08;;;;;;;;;;4990106;28;20036;-72
2021/12/15 07:59:17;;;;;;;57.70;26.20;;;;;;;;;;4989050;28;20025;-73
2021/12/15 08:01:42;;;;;;;64.47;28.75;;;;;;;;;;4988720;28;20394;-72
2021/12/15 08:04:07;;;;;;;63.85;28.02;;;;;;;;;;4989503;28;20474;-72
2021/12/15 08:06:33;;;;;;;65.65;29.42;;;;;;;;;;4988976;28;20022;-73
2021/12/15 08:08:58;;;;;;;67.47;31.13;;;;;;;;;;4987926;28;20111;-72
2021/12/15 08:11:23;;;;;;;60.10;28.42;;;;;;;;;;4989103;28;20030;-73
2021/12/15 08:13:48;;;;;;;60.20;28.25;;;;;;;;;;4989463;28;20026;-72
2021/12/15 08:16:16;;;;;;;65.38;26.35;;;;;;;;;;4989420;28;20073;-72
2021/12/15 08:18:41;;;;;;;66.45;27.20;;;;;;;;;;4990176;28;20101;-71
2021/12/15 08:21:07;;;;;;;64.18;25.88;;;;;;;;;;4989039;28;20809;-73
2021/12/15 08:23:32;;;;;;;64.47;24.52;;;;;;;;;;4988876;28;20030;-73
2021/12/15 08:25:58;;;;;;;65.80;25.58;;;;;;;;;;4989169;28;20490;-73
2021/12/15 08:28:23;;;;;;;61.17;25.83;;;;;;;;;;4989631;28;20486;-72
2021/12/15 08:30:49;;;;;;;65.43;26.48;;;;;;;;;;4988899;28;20045;-73
2021/12/15 08:33:18;;;;;;;60.72;23.98;;;;;;;;;;4989297;28;20019;-72
2021/12/15 08:35:48;;;;;;;65.88;25.70;;;;;;;;;;4987510;28;20424;-72
2021/12/15 08:38:14;;;;;;;58.03;25.27;;;;;;;;;;4989537;28;20022;-72
2021/12/15 08:40:40;;;;;;;57.63;25.25;;;;;;;;;;4983911;28;20113;-71
2021/12/15 08:43:07;;;;;;;67.60;25.48;;;;;;;;;;4987996;28;20113;-70
2021/12/15 08:45:34;;;;;;;62.05;24.70;;;;;;;;;;4986653;28;20046;-69
2021/12/15 08:47:59;;;;;;;64.90;26.08;;;;;;;;;;4988260;28;20023;-69
2021/12/15 08:50:26;;;;;;;59.78;25.98;;;;;;;;;;4986847;28;20042;-69
2021/12/15 08:52:51;;;;;;;65.05;27.05;;;;;;;;;;4986170;28;20026;-70
2021/12/15 08:55:17;;;;;;;58.78;24.67;;;;;;;;;;4988717;28;20367;-70
2021/12/15 08:57:48;;;;;;;62.95;25.00;;;;;;;;;;4983758;28;20509;-69
2021/12/15 09:00:14;;;;;;;60.00;25.27;;;;;;;;;;4986109;28;20030;-69
2021/12/15 09:02:39;;;;;;;65.18;26.80;;;;;;;;;;4986222;28;20033;-69
2021/12/15 09:05:05;;;;;;;64.90;26.35;;;;;;;;;;5002004;28;20025;-69
2021/12/15 09:07:30;;;;;;;67.70;25.75;;;;;;;;;;4988475;28;20502;-69
2021/12/15 09:09:56;;;;;;;64.95;24.27;;;;;;;;;;4988624;28;20034;-68
2021/12/15 09:12:21;;;;;;;70.10;26.08;;;;;;;;;;4984658;28;20057;-65
2021/12/15 09:14:46;;;;;;;66.65;24.65;;;;;;;;;;4985884;28;20038;-65
2021/12/15 09:17:12;;;;;;;69.43;24.45;;;;;;;;;;4988280;28;20026;-64
2021/12/15 09:19:37;;;;;;;67.13;25.88;;;;;;;;;;4988813;28;20371;-65
2021/12/15 09:22:03;;;;;;;63.33;25.08;;;;;;;;;;4989635;28;20015;-64
2021/12/15 09:24:28;;;;;;;61.50;24.08;;;;;;;;;;4986959;28;20125;-64
2021/12/15 09:26:55;;;;;;;64.78;22.88;;;;;;;;;;4982308;28;20770;-65
2021/12/15 09:29:21;;;;;;;58.97;22.85;;;;;;;;;;4986630;28;20398;-65
2021/12/15 09:31:46;;;;;;;57.90;22.60;;;;;;;;;;4988770;28;20028;-66
2021/12/15 09:34:17;;;;;;;52.70;22.70;;;;;;;;;;4988739;28;20041;-64
2021/12/15 09:36:43;;;;;;;57.67;21.88;;;;;;;;;;4992411;28;20054;-64
2021/12/15 09:39:10;;;;;;;51.38;21.20;;;;;;;;;;4992494;28;20077;-65
2021/12/15 09:41:35;;;;;;;49.55;20.45;;;;;;;;;;4992420;28;20034;-65
2021/12/15 09:44:07;;;;;;;50.38;20.33;;;;;;;;;;4992350;28;20894;-65
2021/12/15 09:47:10;;;;;;;43.00;18.42;;;;;;;;;;4992595;28;20105;-65
2021/12/15 10:03:28;;;;;;;36.30;16.40;;;;;;;;;;4970336;28;20069;-66
2021/12/15 10:06:23;;;;;;;;;;;;;;;;;;4970626;28;20039;-64
2021/12/15 10:11:52;;;;;;;38.63;16.48;;;;;;;;;;4969970;28;20109;-66
2021/12/15 10:17:29;;;;;;;34.33;15.73;;;;;;;;;;4950409;29;20039;-65
2021/12/15 10:20:00;;;;;;;33.53;15.73;;;;;;;;;;4950186;29;20034;-67
2021/12/15 10:22:37;;;;;;;30.77;14.68;;;;;;;;;;4949155;29;20038;-65
2021/12/15 10:25:11;;;;;;;29.42;14.18;;;;;;;;;;4947981;29;20937;-65
2021/12/15 10:27:36;;;;;;;31.98;14.30;;;;;;;;;;4950089;29;20039;-64
2021/12/15 10:30:14;;;;;;;26.50;13.65;;;;;;;;;;4950094;29;20105;-65
2021/12/15 10:32:40;;;;;;;32.90;14.77;;;;;;;;;;4950175;29;20031;-65
2021/12/15 10:35:11;;;;;;;28.83;13.27;;;;;;;;;;4950059;29;20122;-66
2021/12/15 10:37:36;;;;;;;24.23;11.18;;;;;;;;;;4959978;28;20038;-65
2021/12/15 10:40:13;;;;;;;22.48;11.98;;;;;;;;;;4969515;28;20398;-65
2021/12/15 10:42:38;;;;;;;25.42;13.13;;;;;;;;;;4969011;28;20082;-65
2021/12/15 10:45:05;;;;;;;21.90;11.70;;;;;;;;;;4963853;28;20019;-65
2021/12/15 10:47:38;;;;;;;25.55;13.57;;;;;;;;;;4967888;28;20786;-66
2021/12/15 10:50:04;;;;;;;24.08;12.27;;;;;;;;;;4968764;28;20145;-66
2021/12/15 10:52:29;;;;;;;24.77;13.70;;;;;;;;;;4974634;28;20102;-66
2021/12/15 10:55:01;;;;;;;23.10;12.05;;;;;;;;;;4990715;28;20033;-66
2021/12/15 10:57:30;;;;;;;22.17;12.35;;;;;;;;;;4990136;28;20030;-64
2021/12/15 10:59:56;;;;;;;22.67;12.00;;;;;;;;;;4990847;28;20034;-65
2021/12/15 11:02:25;;;;;;;23.85;11.95;;;;;;;;;;4990569;28;20165;-66
2021/12/15 11:04:51;;;;;;;22.23;10.38;;;;;;;;;;4988859;28;20121;-64
2021/12/15 11:07:29;;;;;;;22.05;11.70;;;;;;;;;;4988422;28;20038;-65
2021/12/15 11:09:59;;;;;;;20.10;10.80;;;;;;;;;;4981446;28;20096;-65
2021/12/15 11:12:27;;;;;;;21.45;11.35;;;;;;;;;;4990812;28;20026;-65
2021/12/15 11:14:54;;;;;;;23.40;11.70;;;;;;;;;;4990252;28;20105;-65
2021/12/15 11:17:40;;;;;;;25.35;12.93;;;;;;;;;;4990255;28;20027;-65
2021/12/15 11:20:14;;;;;;;23.65;12.07;;;;;;;;;;4990596;28;20037;-65
2021/12/15 11:22:49;;;;;;;26.80;12.52;;;;;;;;;;4990908;28;20088;-65
2021/12/15 11:25:18;;;;;;;23.25;12.30;;;;;;;;;;4990712;28;20076;-65
2021/12/15 11:27:46;;;;;;;21.42;10.30;;;;;;;;;;4990657;28;20458;-65
2021/12/15 11:30:14;;;;;;;18.77;10.82;;;;;;;;;;4990168;28;20108;-66
2021/12/15 11:32:39;;;;;;;21.50;10.82;;;;;;;;;;4990205;28;20022;-65
2021/12/15 11:35:17;;;;;;;18.20;9.32;;;;;;;;;;4990247;28;20038;-65
2021/12/15 11:37:47;;;;;;;15.07;8.75;;;;;;;;;;4990194;28;20367;-65
2021/12/15 11:40:13;;;;;;;17.05;9.23;;;;;;;;;;4990409;28;20037;-65
2021/12/15 11:42:39;;;;;;;15.10;8.60;;;;;;;;;;4989978;28;20398;-66
2021/12/15 11:45:05;;;;;;;14.13;8.68;;;;;;;;;;4989700;28;20022;-67
2021/12/15 11:47:33;;;;;;;16.23;9.68;;;;;;;;;;4989223;28;20591;-65
2021/12/15 11:50:05;;;;;;;18.50;9.80;;;;;;;;;;4989969;28;20033;-65
2021/12/15 11:52:37;;;;;;;14.52;8.07;;;;;;;;;;4990350;28;20022;-65
2021/12/15 11:55:02;;;;;;;16.52;8.85;;;;;;;;;;4989726;28;20030;-65
2021/12/15 11:57:28;;;;;;;15.50;8.43;;;;;;;;;;4989000;28;20027;-64
2021/12/15 11:59:55;;;;;;;12.32;7.57;;;;;;;;;;4989637;28;20029;-65
2021/12/15 12:02:22;;;;;;;14.05;7.97;;;;;;;;;;4989444;28;20414;-64
2021/12/15 12:04:52;;;;;;;13.60;8.23;;;;;;;;;;4989510;28;20037;-64
2021/12/15 12:07:23;;;;;;;14.77;8.40;;;;;;;;;;4989266;28;20042;-65
2021/12/15 12:09:51;;;;;;;11.73;7.40;;;;;;;;;;4989570;28;20034;-65
2021/12/15 12:12:17;;;;;;;15.70;8.40;;;;;;;;;;4989445;28;20375;-65
2021/12/15 12:14:49;;;;;;;11.07;7.30;;;;;;;;;;4989425;28;20508;-65
2021/12/15 12:17:17;;;;;;;17.40;8.80;;;;;;;;;;4989124;28;20026;-65
2021/12/15 12:19:44;;;;;;;14.50;8.82;;;;;;;;;;4989308;28;20022;-65
2021/12/15 12:22:10;;;;;;;12.13;7.20;;;;;;;;;;4987313;28;20034;-65
2021/12/15 12:24:37;;;;;;;13.52;7.43;;;;;;;;;;4989880;28;20426;-65
2021/12/15 12:27:02;;;;;;;14.95;9.48;;;;;;;;;;4988205;28;20046;-66
2021/12/15 12:29:27;;;;;;;17.02;10.27;;;;;;;;;;4983007;28;20031;-65
2021/12/15 12:31:53;;;;;;;14.50;8.05;;;;;;;;;;4989460;28;20022;-66
2021/12/15 12:34:18;;;;;;;11.82;6.93;;;;;;;;;;4989650;28;20081;-66
2021/12/15 12:36:43;;;;;;;13.43;8.88;;;;;;;;;;4989284;28;20513;-65
2021/12/15 12:39:10;;;;;;;14.63;8.38;;;;;;;;;;4989195;28;20045;-65
2021/12/15 12:41:41;;;;;;;16.88;9.63;;;;;;;;;;4989078;28;20102;-65
2021/12/15 12:44:07;;;;;;;12.75;7.45;;;;;;;;;;4989332;28;20023;-64
2021/12/15 12:46:53;;;;;;;15.35;8.88;;;;;;;;;;4989354;28;20022;-66
2021/12/15 12:49:51;;;;;;;12.05;7.47;;;;;;;;;;4987550;28;20033;-64
2021/12/15 12:59:24;;;;;;;14.52;8.15;;;;;;;;;;4988915;28;20100;-66
2021/12/15 13:00:54;;;;;;;15.00;8.30;;;;;;;;;;4988565;28;20042;-65
2021/12/15 13:03:24;;;;;;;13.05;7.88;;;;;;;;;;4989117;28;20019;-66
2021/12/15 13:05:56;;;;;;;13.27;7.40;;;;;;;;;;4989034;28;20335;-66
2021/12/15 13:08:41;;;;;;;13.65;7.60;;;;;;;;;;4988497;28;20446;-66
2021/12/15 13:11:10;;;;;;;16.70;10.02;;;;;;;;;;4990277;28;20034;-65
2021/12/15 13:13:55;;;;;;;12.75;7.30;;;;;;;;;;4992914;28;20022;-65
2021/12/15 13:16:39;;;;;;;17.33;9.57;;;;;;;;;;4987732;28;20022;-64
2021/12/15 13:19:04;;;;;;;14.40;7.55;;;;;;;;;;4992523;28;20430;-65
2021/12/15 13:21:50;;;;;;;14.45;7.18;;;;;;;;;;4990792;28;20065;-66
2021/12/15 13:28:41;;;;;;;16.00;8.45;;;;;;;;;;4992396;28;20030;-65
2021/12/15 13:30:03;;;;;;;14.48;7.70;;;;;;;;;;4991770;28;20080;-65
2021/12/15 13:32:31;;;;;;;14.55;8.10;;;;;;;;;;4992268;28;20534;-65
2021/12/15 13:34:56;;;;;;;13.35;7.30;;;;;;;;;;4992543;28;20363;-64
2021/12/15 13:37:41;;;;;;;15.23;7.88;;;;;;;;;;4992915;28;20038;-65
2021/12/15 13:40:10;;;;;;;13.00;7.70;;;;;;;;;;4992190;28;20084;-65
2021/12/15 13:42:43;;;;;;;12.55;7.32;;;;;;;;;;4992371;28;20031;-65
2021/12/15 13:45:25;;;;;;;14.68;7.78;;;;;;;;;;4992607;28;20030;-65
2021/12/15 13:47:50;;;;;;;15.18;7.93;;;;;;;;;;4992446;28;20022;-66
2021/12/15 13:50:17;;;;;;;15.98;8.27;;;;;;;;;;4993188;28;20060;-65
2021/12/15 13:52:44;;;;;;;48.67;25.58;;;;;;;;;;4995919;28;20018;-66
2021/12/15 13:55:12;;;;;;;19.35;9.70;;;;;;;;;;4990701;28;20050;-66
2021/12/15 13:57:57;;;;;;;17.55;9.05;;;;;;;;;;4992439;28;20101;-65
2021/12/15 14:00:25;;;;;;;16.08;8.75;;;;;;;;;;4994983;28;20054;-65
2021/12/15 14:03:09;;;;;;;18.25;9.55;;;;;;;;;;4991355;28;20041;-66
2021/12/15 14:05:45;;;;;;;17.88;8.32;;;;;;;;;;4986041;28;20529;-65
2021/12/15 14:08:25;;;;;;;17.35;8.30;;;;;;;;;;4991629;28;20117;-65
2021/12/15 14:10:54;;;;;;;19.65;8.77;;;;;;;;;;4991643;28;20100;-65
2021/12/15 14:13:19;;;;;;;17.92;9.10;;;;;;;;;;4991502;28;20092;-65
2021/12/15 14:15:46;;;;;;;17.67;9.10;;;;;;;;;;4991975;28;20026;-65
2021/12/15 14:18:13;;;;;;;17.58;9.18;;;;;;;;;;4991835;28;20066;-65
2021/12/15 14:20:41;;;;;;;17.63;8.73;;;;;;;;;;4993210;28;20061;-66
2021/12/15 14:23:08;;;;;;;17.30;8.15;;;;;;;;;;4989719;28;20084;-66
2021/12/15 14:25:35;;;;;;;21.15;9.10;;;;;;;;;;4986748;28;20041;-65
2021/12/15 14:28:10;;;;;;;16.77;8.63;;;;;;;;;;4989287;28;20035;-65
2021/12/15 14:30:36;;;;;;;19.77;9.35;;;;;;;;;;4991137;28;20089;-66
2021/12/15 14:33:02;;;;;;;20.40;9.52;;;;;;;;;;4984908;28;20030;-65
2021/12/15 14:35:27;;;;;;;19.00;9.60;;;;;;;;;;4989779;28;20037;-65
2021/12/15 14:37:52;;;;;;;18.35;9.48;;;;;;;;;;4991463;28;20466;-66
2021/12/15 14:40:21;;;;;;;18.65;10.05;;;;;;;;;;4990853;28;20065;-65
2021/12/15 14:42:46;;;;;;;18.98;8.88;;;;;;;;;;4990263;28;20030;-64
2021/12/15 14:45:12;;;;;;;20.10;10.48;;;;;;;;;;4991372;28;20038;-65
2021/12/15 14:47:39;;;;;;;21.80;10.93;;;;;;;;;;4991459;28;20391;-65
2021/12/15 14:50:08;;;;;;;20.33;10.07;;;;;;;;;;4989587;28;20459;-65
2021/12/15 14:52:35;;;;;;;19.55;10.15;;;;;;;;;;4987193;28;20088;-65
2021/12/15 14:55:05;;;;;;;17.55;9.95;;;;;;;;;;4988352;28;20035;-65
2021/12/15 14:57:31;;;;;;;18.23;9.98;;;;;;;;;;4983428;28;20034;-66
2021/12/15 15:00:08;;;;;;;22.65;10.40;;;;;;;;;;4990001;28;20101;-65
2021/12/15 15:02:35;;;;;;;20.65;9.93;;;;;;;;;;4987097;28;20387;-65
2021/12/15 15:05:04;;;;;;;22.48;11.95;;;;;;;;;;4989284;28;20025;-64
2021/12/15 15:07:32;;;;;;;21.83;12.05;;;;;;;;;;4989821;28;20505;-64
2021/12/15 15:09:58;;;;;;;20.38;11.30;;;;;;;;;;4982846;28;20417;-64
2021/12/15 15:12:30;;;;;;;22.83;10.68;;;;;;;;;;4990059;28;20017;-65
2021/12/15 15:14:59;;;;;;;28.40;14.65;;;;;;;;;;4990442;28;20080;-65
2021/12/15 15:17:32;;;;;;;22.90;12.23;;;;;;;;;;4991236;28;20481;-65
2021/12/15 15:20:00;;;;;;;20.25;10.75;;;;;;;;;;4990061;28;20117;-64
2021/12/15 15:22:27;;;;;;;20.55;11.15;;;;;;;;;;4989744;28;20136;-66
2021/12/15 15:24:54;;;;;;;28.52;16.45;;;;;;;;;;4990440;28;20019;-65
2021/12/15 15:27:20;;;;;;;19.17;11.15;;;;;;;;;;4990131;28;20018;-64
2021/12/15 15:29:47;;;;;;;22.23;12.18;;;;;;;;;;4990302;28;20034;-65
2021/12/15 15:32:21;;;;;;;21.58;10.73;;;;;;;;;;4989919;28;20053;-65
2021/12/15 15:34:47;;;;;;;21.27;11.18;;;;;;;;;;4989259;28;20033;-65
2021/12/15 15:37:21;;;;;;;22.48;11.50;;;;;;;;;;4987324;28;20030;-67
2021/12/15 15:39:57;;;;;;;21.70;13.02;;;;;;;;;;4990361;28;20139;-65